Idahome, Idaho
Current Conditions -  °F | °C
As of 9:53 PM on Monday 22 Dec 2014 (Local Time) from KBYI Reporting Station
Clear Clear  
Wind Chill: 23°   Ceiling: Unl
Heat Index: 32°   Visibility: 10mi
Dew Point: 26°   Wind: 13mph
Humidity: 79%   Direction: 270°W
Pressure: 30.24"   Gusts: 20mph
Location:  42.5399°N, 113.621°W
Report Text: KBYI 230453Z AUTO 27011G17KT 10SM CLR 00/M03 A3024 RMK AO2 SLP253 T00001033
Loading
Personal Weather Stations






























Interactive Weather Map New forecast layout! Learn more

10-Day Weather Forecast

Advertisements
Track Severe Weather on mobile